createdAt,value
2018-11-14T00:00:03.144Z,13.33
2018-11-14T00:02:31.700Z,18.17
2018-11-14T00:05:00.217Z,16.57
2018-11-14T00:07:28.820Z,16.83
2018-11-14T00:09:57.312Z,22.90
2018-11-14T00:12:25.808Z,21.27
2018-11-14T00:14:54.308Z,16.60
2018-11-14T00:17:22.813Z,16.90
2018-11-14T00:19:51.676Z,26.47
2018-11-14T00:22:20.330Z,29.13
2018-11-14T00:24:48.845Z,23.63
2018-11-14T00:27:17.352Z,20.27
2018-11-14T00:29:45.841Z,26.67
2018-11-14T00:32:14.294Z,40.83
2018-11-14T00:34:42.795Z,34.27
2018-11-14T00:37:11.215Z,24.47
2018-11-14T00:39:39.688Z,18.73
2018-11-14T00:42:08.162Z,19.13
2018-11-14T00:44:36.630Z,17.93
2018-11-14T00:47:05.382Z,19.40
2018-11-14T00:49:33.888Z,23.07
2018-11-14T00:52:02.468Z,19.20
2018-11-14T00:54:30.960Z,16.93
2018-11-14T00:56:59.434Z,16.60
2018-11-14T00:59:27.906Z,16.77
2018-11-14T01:01:56.436Z,14.63
2018-11-14T01:04:24.935Z,19.40
2018-11-14T01:06:53.422Z,15.87
2018-11-14T01:09:21.880Z,13.77
2018-11-14T01:11:50.385Z,17.63
2018-11-14T01:14:19.892Z,17.97
2018-11-14T01:16:49.264Z,17.63
2018-11-14T01:19:17.797Z,15.53
2018-11-14T01:21:46.738Z,15.80
2018-11-14T01:24:14.825Z,15.40
2018-11-14T01:26:43.483Z,16.10
2018-11-14T01:29:12.036Z,18.43
2018-11-14T01:31:40.526Z,18.43
2018-11-14T01:34:09.081Z,22.73
2018-11-14T01:36:37.661Z,19.37
2018-11-14T01:39:09.274Z,20.63
2018-11-14T01:41:38.338Z,17.03
2018-11-14T01:44:07.384Z,20.10
2018-11-14T01:46:36.528Z,17.17
2018-11-14T01:49:05.310Z,18.43
2018-11-14T01:51:34.009Z,20.90
2018-11-14T01:54:02.518Z,19.60
2018-11-14T01:56:30.996Z,20.93
2018-11-14T01:58:59.637Z,17.93
2018-11-14T02:01:28.374Z,20.47
2018-11-14T02:03:56.887Z,17.93
2018-11-14T02:06:25.406Z,16.33
2018-11-14T02:08:54.043Z,19.90
2018-11-14T02:11:22.592Z,18.33
2018-11-14T02:13:51.066Z,20.50
2018-11-14T02:16:19.574Z,21.90
2018-11-14T02:18:48.055Z,20.87
2018-11-14T02:21:16.742Z,19.07
2018-11-14T02:23:45.310Z,16.97
2018-11-14T02:26:13.783Z,24.63
2018-11-14T02:28:42.260Z,18.50
2018-11-14T02:31:10.719Z,24.40
2018-11-14T02:33:39.251Z,17.93
2018-11-14T02:36:07.711Z,17.50
2018-11-14T02:38:36.225Z,18.73
2018-11-14T02:41:04.731Z,19.80
2018-11-14T02:43:33.210Z,23.97
2018-11-14T02:46:01.693Z,15.13
2018-11-14T02:48:30.409Z,20.53
2018-11-14T02:51:10.209Z,14.97
2018-11-14T02:53:38.687Z,14.37
2018-11-14T02:56:10.523Z,18.00
2018-11-14T02:58:39.099Z,18.17
2018-11-14T03:01:08.103Z,17.03
2018-11-14T03:03:36.579Z,23.17
2018-11-14T03:06:05.352Z,19.10
2018-11-14T03:08:33.887Z,19.80
2018-11-14T03:11:02.383Z,15.57
2018-11-14T03:13:30.931Z,19.60
2018-11-14T03:15:59.429Z,20.33
2018-11-14T03:18:27.945Z,19.17
2018-11-14T03:20:56.537Z,15.90
2018-11-14T03:23:25.044Z,19.73
2018-11-14T03:25:53.523Z,17.13
2018-11-14T03:28:22.032Z,20.67
2018-11-14T03:30:50.523Z,19.40
2018-11-14T03:33:19.007Z,16.07
2018-11-14T03:35:52.824Z,17.73
2018-11-14T03:38:21.298Z,17.77
2018-11-14T03:40:49.770Z,19.10
2018-11-14T03:43:18.296Z,21.77
2018-11-14T03:45:46.779Z,19.07
2018-11-14T03:48:15.812Z,21.33
2018-11-14T03:50:44.274Z,15.70
2018-11-14T03:53:12.722Z,18.17
2018-11-14T03:55:41.224Z,18.27
2018-11-14T03:58:09.764Z,23.93
2018-11-14T04:00:38.220Z,20.20
2018-11-14T04:03:06.728Z,21.93
2018-11-14T04:05:35.281Z,15.13
2018-11-14T04:08:03.704Z,21.37
2018-11-14T04:10:32.184Z,21.63
2018-11-14T04:13:00.646Z,20.47
2018-11-14T04:15:29.679Z,18.63
2018-11-14T04:17:58.194Z,24.23
2018-11-14T04:20:26.708Z,20.50
2018-11-14T04:22:55.176Z,21.77
2018-11-14T04:25:23.646Z,24.73
2018-11-14T04:27:52.117Z,22.07
2018-11-14T04:30:21.940Z,24.80
2018-11-14T04:32:50.536Z,22.30
2018-11-14T04:35:19.912Z,26.23
2018-11-14T04:37:48.401Z,26.50
2018-11-14T04:40:19.822Z,19.47
2018-11-14T04:42:48.330Z,26.67
2018-11-14T04:45:19.410Z,24.23
2018-11-14T04:47:48.323Z,24.83
2018-11-14T04:50:19.097Z,20.23
2018-11-14T04:52:48.503Z,27.13
2018-11-14T04:55:18.703Z,23.63
2018-11-14T04:57:47.424Z,20.13
2018-11-14T05:00:16.642Z,23.40
2018-11-14T05:02:45.941Z,22.70
2018-11-14T05:05:15.949Z,24.83
2018-11-14T05:07:44.431Z,24.27
2018-11-14T05:10:16.186Z,22.60
2018-11-14T05:12:44.923Z,30.23
2018-11-14T05:15:15.054Z,26.47
2018-11-14T05:17:44.075Z,26.93
2018-11-14T05:20:14.295Z,25.33
2018-11-14T05:22:43.291Z,29.23
2018-11-14T05:25:11.771Z,27.73
2018-11-14T05:27:40.348Z,24.17
2018-11-14T05:30:12.010Z,24.67
2018-11-14T05:32:41.036Z,27.47
2018-11-14T05:35:10.512Z,21.10
2018-11-14T05:37:39.737Z,28.80
2018-11-14T05:40:10.911Z,24.40
2018-11-14T05:42:40.148Z,24.20
2018-11-14T05:45:12.077Z,31.23
2018-11-14T05:47:40.590Z,26.00
2018-11-14T05:50:11.448Z,26.40
2018-11-14T05:52:40.314Z,24.57
2018-11-14T05:55:10.323Z,23.33
2018-11-14T05:57:39.116Z,17.43
2018-11-14T06:00:13.860Z,21.73
2018-11-14T06:02:42.335Z,26.10
2018-11-14T06:05:10.836Z,25.00
2018-11-14T06:07:39.799Z,22.40
2018-11-14T06:10:10.080Z,24.37
2018-11-14T06:12:38.563Z,28.00
2018-11-14T06:15:09.258Z,22.83
2018-11-14T06:17:37.720Z,22.60
2018-11-14T06:20:07.388Z,22.20
2018-11-14T06:22:35.995Z,25.10
2018-11-14T06:25:17.802Z,23.33
2018-11-14T06:27:46.479Z,25.07
2018-11-14T06:30:14.953Z,23.70
2018-11-14T06:32:44.205Z,19.57
2018-11-14T06:35:12.698Z,23.97
2018-11-14T06:37:41.182Z,21.23
2018-11-14T06:40:11.049Z,22.27
2018-11-14T06:42:40.077Z,21.63
2018-11-14T06:45:12.503Z,23.27
2018-11-14T06:47:42.059Z,19.00
2018-11-14T06:50:11.297Z,17.17
2018-11-14T06:52:40.541Z,24.77
2018-11-14T06:55:10.808Z,22.57
2018-11-14T06:57:39.318Z,27.37
2018-11-14T07:00:12.266Z,20.67
2018-11-14T07:02:40.811Z,19.00
2018-11-14T07:05:11.875Z,21.10
2018-11-14T07:07:40.637Z,25.30
2018-11-14T07:10:10.968Z,21.20
2018-11-14T07:12:39.463Z,26.57
2018-11-14T07:15:10.630Z,20.40
2018-11-14T07:17:39.107Z,22.27
2018-11-14T07:20:10.572Z,24.50
2018-11-14T07:22:39.427Z,25.70
2018-11-14T07:25:08.228Z,25.47
2018-11-14T07:27:36.812Z,26.23
2018-11-14T07:30:07.520Z,23.57
2018-11-14T07:32:36.040Z,25.17
2018-11-14T07:35:04.595Z,22.63
2018-11-14T07:37:33.155Z,19.07
2018-11-14T07:40:01.653Z,23.40
2018-11-14T07:42:30.160Z,23.20
2018-11-14T07:44:58.764Z,22.77
2018-11-14T07:47:27.266Z,21.67
2018-11-14T07:49:55.796Z,30.07
2018-11-14T07:52:24.249Z,23.43
2018-11-14T07:54:52.840Z,26.93
2018-11-14T07:57:21.489Z,26.87
2018-11-14T07:59:50.013Z,26.07
2018-11-14T08:02:18.747Z,28.03
2018-11-14T08:04:47.168Z,30.13
2018-11-14T08:07:16.259Z,27.00
2018-11-14T08:09:44.753Z,28.00
2018-11-14T08:12:13.207Z,27.13
2018-11-14T08:14:41.769Z,32.83
2018-11-14T08:17:10.255Z,27.73
2018-11-14T08:19:38.745Z,26.97
2018-11-14T08:22:07.334Z,23.87
2018-11-14T08:24:35.802Z,25.23
2018-11-14T08:27:04.285Z,24.27
2018-11-14T08:29:32.775Z,23.00
2018-11-14T08:32:01.434Z,23.10
2018-11-14T08:34:30.114Z,20.77
2018-11-14T08:36:58.666Z,24.67
2018-11-14T08:39:27.293Z,18.93
2018-11-14T08:41:55.708Z,22.10
2018-11-14T08:44:24.389Z,21.20
2018-11-14T08:46:53.076Z,20.57
2018-11-14T08:49:21.638Z,22.27
2018-11-14T08:51:50.120Z,19.43
2018-11-14T08:54:18.616Z,21.53
2018-11-14T08:56:47.141Z,21.13
2018-11-14T08:59:15.600Z,19.43
2018-11-14T09:01:44.076Z,19.27
2018-11-14T09:04:12.589Z,22.77
2018-11-14T09:06:41.070Z,22.87
2018-11-14T09:09:10.574Z,15.60
2018-11-14T09:11:39.775Z,21.33
2018-11-14T09:14:08.265Z,18.40
2018-11-14T09:16:36.769Z,18.90
2018-11-14T09:19:05.635Z,22.27
2018-11-14T09:21:34.161Z,22.90
2018-11-14T09:24:02.814Z,18.40
2018-11-14T09:26:31.363Z,19.63
2018-11-14T09:28:59.853Z,20.10
2018-11-14T09:31:28.525Z,16.47
2018-11-14T09:33:57.038Z,17.53
2018-11-14T09:36:25.541Z,17.97
2018-11-14T09:38:54.775Z,20.67
2018-11-14T09:41:23.281Z,14.83
2018-11-14T09:43:51.744Z,15.67
2018-11-14T09:46:20.467Z,15.80
2018-11-14T09:48:48.966Z,21.03
2018-11-14T09:51:17.441Z,15.90
2018-11-14T09:53:46.010Z,16.17
2018-11-14T09:56:14.517Z,23.87
2018-11-14T09:58:43.064Z,17.50
2018-11-14T10:01:11.649Z,13.97
2018-11-14T10:03:40.159Z,16.63
2018-11-14T10:06:08.669Z,18.87
2018-11-14T10:08:37.107Z,16.80
2018-11-14T10:11:06.177Z,15.80
2018-11-14T10:13:34.689Z,18.60
2018-11-14T10:16:03.155Z,13.00
2018-11-14T10:18:31.658Z,16.33
2018-11-14T10:21:00.221Z,18.33
2018-11-14T10:23:28.711Z,17.23
2018-11-14T10:25:57.212Z,19.97
2018-11-14T10:28:26.099Z,15.23
2018-11-14T10:30:54.603Z,14.57
2018-11-14T10:33:23.079Z,18.10
2018-11-14T10:35:51.607Z,18.70
2018-11-14T10:38:20.097Z,15.70
2018-11-14T10:40:48.575Z,19.57
2018-11-14T10:43:17.558Z,17.77
2018-11-14T10:45:46.112Z,17.87
2018-11-14T10:48:14.583Z,15.23
2018-11-14T10:50:43.283Z,14.63
2018-11-14T10:53:11.732Z,20.23
2018-11-14T10:55:40.206Z,16.23
2018-11-14T10:58:08.832Z,17.33
2018-11-14T11:00:42.617Z,14.90
2018-11-14T11:03:16.359Z,21.67
2018-11-14T11:05:50.658Z,17.27
2018-11-14T11:08:24.920Z,13.40
2018-11-14T11:10:58.699Z,15.67
2018-11-14T11:13:32.420Z,15.17
2018-11-14T11:16:06.106Z,14.27
2018-11-14T11:18:35.324Z,15.43
2018-11-14T11:21:03.847Z,12.63
2018-11-14T11:23:32.384Z,15.53
2018-11-14T11:26:00.860Z,11.83
2018-11-14T11:28:29.799Z,21.73
2018-11-14T11:30:58.357Z,11.53
2018-11-14T11:33:26.850Z,12.83
2018-11-14T11:35:55.320Z,12.13
2018-11-14T11:38:24.451Z,15.67
2018-11-14T11:40:52.990Z,10.27
2018-11-14T11:43:21.516Z,12.70
2018-11-14T11:45:50.116Z,12.57
2018-11-14T11:48:18.592Z,10.40
2018-11-14T11:50:47.101Z,11.10
2018-11-14T11:53:15.608Z,9.57
2018-11-14T11:55:44.092Z,8.03
2018-11-14T11:58:12.601Z,12.27
2018-11-14T12:00:41.292Z,9.80
2018-11-14T12:04:38.846Z,10.00
2018-11-14T12:07:08.326Z,9.83
2018-11-14T12:09:36.930Z,11.13
2018-11-14T12:12:05.460Z,8.33
2018-11-14T12:14:33.993Z,13.43
2018-11-14T12:17:02.552Z,10.30
2018-11-14T12:19:31.166Z,11.03
2018-11-14T12:21:59.883Z,9.07
2018-11-14T12:24:28.710Z,11.57
2018-11-14T12:26:57.456Z,9.87
2018-11-14T12:29:26.009Z,10.43
2018-11-14T12:31:54.477Z,11.17
2018-11-14T12:34:23.166Z,9.07
2018-11-14T12:36:51.703Z,9.00
2018-11-14T12:39:20.261Z,10.27
2018-11-14T12:41:48.787Z,7.53
2018-11-14T12:44:17.283Z,12.30
2018-11-14T12:46:45.785Z,11.33
2018-11-14T12:49:14.281Z,10.67
2018-11-14T12:51:42.782Z,14.40
2018-11-14T12:54:11.321Z,8.70
2018-11-14T12:56:39.974Z,7.30
2018-11-14T12:59:08.467Z,7.17
2018-11-14T13:01:37.212Z,7.20
2018-11-14T13:04:06.402Z,7.23
2018-11-14T13:06:34.877Z,12.10
2018-11-14T13:09:03.967Z,7.80
2018-11-14T13:11:32.610Z,7.67
2018-11-14T13:14:01.116Z,9.40
2018-11-14T13:16:29.600Z,5.93
2018-11-14T13:18:58.064Z,6.53
2018-11-14T13:21:26.532Z,6.57
2018-11-14T13:23:55.026Z,6.53
2018-11-14T13:26:23.500Z,5.47
2018-11-14T13:28:52.172Z,6.97
2018-11-14T13:31:20.731Z,8.93
2018-11-14T13:33:49.208Z,9.57
2018-11-14T13:36:17.934Z,8.97
2018-11-14T13:38:46.508Z,5.20
2018-11-14T13:41:15.009Z,6.30
2018-11-14T13:43:43.934Z,6.03
2018-11-14T13:46:12.567Z,3.40
2018-11-14T13:48:41.057Z,4.30
2018-11-14T13:51:09.777Z,4.23
2018-11-14T13:53:38.088Z,3.37
2018-11-14T13:56:06.973Z,5.87
2018-11-14T13:58:35.617Z,4.33
2018-11-14T14:01:04.134Z,4.80
2018-11-14T14:03:32.877Z,3.57
2018-11-14T14:06:01.385Z,4.03
2018-11-14T14:08:30.047Z,6.77
2018-11-14T14:10:58.854Z,7.07
2018-11-14T14:13:27.554Z,4.97
2018-11-14T14:15:56.287Z,4.50
2018-11-14T14:18:24.853Z,3.93
2018-11-14T14:20:53.368Z,6.57
2018-11-14T14:23:21.906Z,5.50
2018-11-14T14:25:50.603Z,7.27
2018-11-14T14:28:19.088Z,4.13
2018-11-14T14:30:47.873Z,4.80
2018-11-14T14:33:16.359Z,4.40
2018-11-14T14:35:44.862Z,7.80
2018-11-14T14:38:13.744Z,6.30
2018-11-14T14:40:42.618Z,5.13
2018-11-14T14:43:11.129Z,4.53
2018-11-14T14:45:39.853Z,6.07
2018-11-14T14:48:08.411Z,4.53
2018-11-14T14:50:36.953Z,5.77
2018-11-14T14:53:06.009Z,3.83
2018-11-14T14:55:34.546Z,6.57
2018-11-14T14:58:03.052Z,2.87
2018-11-14T15:00:31.616Z,4.23
2018-11-14T15:03:00.155Z,7.93
2018-11-14T15:05:28.694Z,4.50
2018-11-14T15:07:57.221Z,4.23
2018-11-14T15:10:26.128Z,4.20
2018-11-14T15:12:54.745Z,3.97
2018-11-14T15:15:23.333Z,3.17
2018-11-14T15:17:51.936Z,4.80
2018-11-14T15:20:21.961Z,2.87
2018-11-14T15:22:50.711Z,4.50
2018-11-14T15:25:20.524Z,6.23
2018-11-14T15:27:49.626Z,2.23
2018-11-14T15:30:20.894Z,6.20
2018-11-14T15:32:50.103Z,5.63
2018-11-14T15:35:18.728Z,4.23
2018-11-14T15:37:47.245Z,3.57
2018-11-14T15:40:17.359Z,3.97
2018-11-14T15:42:46.327Z,4.60
2018-11-14T15:45:17.173Z,6.07
2018-11-14T15:47:45.742Z,7.33
2018-11-14T15:50:15.771Z,8.20
2018-11-14T15:52:45.484Z,5.70
2018-11-14T15:55:15.203Z,5.27
2018-11-14T15:57:43.984Z,7.87
2018-11-14T16:00:16.047Z,4.83
2018-11-14T16:02:44.705Z,4.40
2018-11-14T16:05:14.783Z,6.70
2018-11-14T16:07:44.311Z,5.17
2018-11-14T16:10:14.212Z,4.80
2018-11-14T16:12:43.174Z,5.23
2018-11-14T16:15:13.326Z,3.60
2018-11-14T16:17:42.306Z,7.40
2018-11-14T16:20:12.688Z,5.03
2018-11-14T16:22:41.432Z,7.20
2018-11-14T16:25:13.942Z,4.87
2018-11-14T16:27:43.876Z,5.70
2018-11-14T16:30:15.022Z,5.23
2018-11-14T16:32:45.198Z,4.83
2018-11-14T16:35:13.984Z,5.10
2018-11-14T16:37:43.146Z,4.67
2018-11-14T16:40:15.844Z,5.70
2018-11-14T16:42:44.386Z,7.00
2018-11-14T16:45:13.908Z,6.93
2018-11-14T16:47:42.854Z,7.07
2018-11-14T16:50:13.368Z,5.17
2018-11-14T16:52:42.016Z,5.57
2018-11-14T16:55:11.688Z,6.03
2018-11-14T16:57:41.166Z,5.57
2018-11-14T17:00:16.492Z,6.33
2018-11-14T17:02:45.031Z,8.90
2018-11-14T17:05:13.937Z,10.93
2018-11-14T17:07:42.449Z,8.53
2018-11-14T17:10:14.731Z,9.43
2018-11-14T17:12:44.512Z,9.17
2018-11-14T17:15:15.137Z,8.57
2018-11-14T17:17:43.745Z,11.83
2018-11-14T17:20:13.559Z,13.57
2018-11-14T17:22:42.661Z,11.20
2018-11-14T17:25:12.334Z,12.97
2018-11-14T17:27:41.521Z,18.60
2018-11-14T17:30:13.422Z,15.67
2018-11-14T17:32:42.516Z,19.07
2018-11-14T17:35:12.035Z,22.73
2018-11-14T17:37:41.323Z,16.57
2018-11-14T17:40:14.565Z,18.23
2018-11-14T17:42:44.004Z,14.60
2018-11-14T17:45:14.971Z,16.03
2018-11-14T17:47:45.485Z,14.83
2018-11-14T17:50:17.532Z,17.17
2018-11-14T17:52:47.394Z,19.67
2018-11-14T17:55:16.688Z,16.23
2018-11-14T17:57:45.220Z,16.63
2018-11-14T18:00:21.452Z,11.03
2018-11-14T18:02:49.976Z,10.73
2018-11-14T18:05:19.656Z,9.07
2018-11-14T18:07:49.102Z,7.80
2018-11-14T18:10:21.060Z,9.67
2018-11-14T18:12:50.583Z,8.47
2018-11-14T18:15:19.475Z,8.37
2018-11-14T18:17:48.969Z,9.83
2018-11-14T18:20:20.924Z,10.30
2018-11-14T18:22:50.251Z,10.07
2018-11-14T18:25:18.979Z,7.90
2018-11-14T18:27:47.516Z,7.50
2018-11-14T18:30:19.048Z,10.07
2018-11-14T18:32:47.516Z,8.07
2018-11-14T18:35:17.147Z,7.73
2018-11-14T18:37:46.220Z,6.77
2018-11-14T18:40:18.187Z,6.23
2018-11-14T18:42:47.048Z,7.97
2018-11-14T18:45:18.203Z,8.07
2018-11-14T18:47:47.122Z,10.23
2018-11-14T18:50:16.368Z,9.37
2018-11-14T18:52:45.719Z,11.27
2018-11-14T18:55:16.391Z,8.80
2018-11-14T18:57:45.404Z,7.30
2018-11-14T19:00:16.922Z,9.07
2018-11-14T19:02:45.773Z,8.13
2018-11-14T19:05:14.898Z,9.97
2018-11-14T19:07:44.129Z,7.73
2018-11-14T19:10:15.375Z,9.87
2018-11-14T19:12:44.652Z,10.17
2018-11-14T19:15:21.241Z,10.63
2018-11-14T19:17:49.974Z,10.03
2018-11-14T19:20:20.264Z,9.37
2018-11-14T19:22:48.811Z,9.93
2018-11-14T19:25:18.798Z,9.27
2018-11-14T19:27:48.079Z,9.53
2018-11-14T19:30:18.046Z,9.07
2018-11-14T19:32:48.096Z,8.67
2018-11-14T19:35:17.087Z,9.53
2018-11-14T19:37:46.883Z,10.87
2018-11-14T19:40:19.706Z,13.00
2018-11-14T19:42:49.584Z,11.70
2018-11-14T19:45:20.321Z,10.03
2018-11-14T19:47:48.857Z,11.40
2018-11-14T19:50:18.556Z,8.93
2018-11-14T19:52:47.589Z,9.87
2018-11-14T19:55:18.002Z,11.67
2018-11-14T19:57:47.762Z,13.50
2018-11-14T20:00:18.858Z,9.23
2018-11-14T20:02:47.620Z,12.73
2018-11-14T20:05:17.187Z,10.20
2018-11-14T20:07:46.522Z,12.53
2018-11-14T20:10:19.660Z,9.63
2018-11-14T20:12:48.876Z,10.20
2018-11-14T20:15:18.974Z,11.37
2018-11-14T20:17:48.388Z,12.30
2018-11-14T20:20:19.311Z,10.77
2018-11-14T20:22:47.812Z,8.13
2018-11-14T20:25:16.694Z,13.40
2018-11-14T20:27:45.684Z,8.63
2018-11-14T20:30:16.870Z,10.63
2018-11-14T20:32:45.481Z,11.33
2018-11-14T20:35:15.118Z,11.07
2018-11-14T20:37:44.035Z,11.83
2018-11-14T20:40:14.971Z,11.63
2018-11-14T20:42:44.001Z,12.40
2018-11-14T20:45:14.372Z,10.13
2018-11-14T20:47:43.156Z,10.47
2018-11-14T20:50:14.298Z,11.00
2018-11-14T20:52:43.501Z,14.13
2018-11-14T20:55:12.274Z,13.63
2018-11-14T20:57:41.592Z,12.67
2018-11-14T21:00:13.897Z,13.93
2018-11-14T21:02:43.361Z,12.33
2018-11-14T21:05:12.570Z,13.43
2018-11-14T21:07:42.125Z,11.30
2018-11-14T21:10:15.262Z,11.77
2018-11-14T21:12:43.970Z,12.60
2018-11-14T21:15:16.383Z,12.20
2018-11-14T21:17:45.338Z,12.23
2018-11-14T21:20:14.006Z,12.27
2018-11-14T21:22:42.936Z,10.40
2018-11-14T21:25:13.117Z,9.93
2018-11-14T21:27:42.830Z,15.97
2018-11-14T21:30:12.765Z,14.63
2018-11-14T21:32:41.689Z,12.10
2018-11-14T21:35:18.758Z,13.70
2018-11-14T21:37:48.717Z,15.17
2018-11-14T21:40:17.327Z,13.20
2018-11-14T21:42:45.861Z,15.57
2018-11-14T21:45:15.978Z,12.60
2018-11-14T21:47:49.865Z,13.90
2018-11-14T21:50:19.567Z,12.17
2018-11-14T21:52:48.401Z,13.53
2018-11-14T21:55:17.208Z,11.50
2018-11-14T21:57:45.820Z,14.63
2018-11-14T22:00:16.546Z,12.97
2018-11-14T22:02:47.697Z,12.97
2018-11-14T22:05:16.260Z,14.13
2018-11-14T22:07:44.821Z,14.20
2018-11-14T22:10:16.241Z,14.63
2018-11-14T22:12:45.451Z,13.60
2018-11-14T22:15:14.952Z,12.87
2018-11-14T22:17:43.437Z,12.33
2018-11-14T22:20:13.378Z,14.20
2018-11-14T22:22:43.313Z,14.13
2018-11-14T22:25:13.003Z,12.87
2018-11-14T22:27:42.064Z,12.27
2018-11-14T22:30:17.159Z,11.80
2018-11-14T22:32:45.717Z,15.10
2018-11-14T22:35:15.725Z,12.40
2018-11-14T22:37:45.017Z,11.60
2018-11-14T22:40:15.185Z,12.80
2018-11-14T22:42:44.028Z,12.60
2018-11-14T22:45:14.910Z,20.40
2018-11-14T22:47:43.973Z,11.87
2018-11-14T22:50:14.329Z,12.37
2018-11-14T22:52:43.553Z,13.17
2018-11-14T22:55:13.331Z,13.13
2018-11-14T22:57:42.559Z,16.27
2018-11-14T23:00:18.939Z,13.90
2018-11-14T23:02:49.086Z,13.73
2018-11-14T23:05:17.684Z,13.93
2018-11-14T23:07:47.000Z,13.10
2018-11-14T23:10:15.588Z,12.57
2018-11-14T23:12:44.151Z,12.80
2018-11-14T23:15:12.625Z,13.67
2018-11-14T23:17:41.369Z,14.07
2018-11-14T23:20:12.335Z,14.97
2018-11-14T23:22:41.931Z,14.80
2018-11-14T23:25:11.283Z,13.97
2018-11-14T23:27:41.505Z,14.33
2018-11-14T23:30:12.171Z,14.60
2018-11-14T23:32:42.062Z,14.50
2018-11-14T23:35:16.419Z,12.40
2018-11-14T23:37:46.966Z,12.77
2018-11-14T23:40:15.441Z,13.90
2018-11-14T23:42:43.933Z,12.50
2018-11-14T23:45:13.664Z,16.60
2018-11-14T23:47:42.958Z,13.73
2018-11-14T23:50:14.496Z,14.97
2018-11-14T23:52:44.154Z,14.10
2018-11-14T23:55:13.245Z,14.90
2018-11-14T23:57:42.130Z,14.30
